sensor_id;sensor_type;location;lat;lon;timestamp;P1;durP1;ratioP1;P2;durP2;ratioP2
61104;SDS011;46987;32.638;-115.438;2023-04-10T00:01:34;3.85;;;1.30;;
61104;SDS011;46987;32.638;-115.438;2023-04-10T00:04:01;6.28;;;1.65;;
61104;SDS011;46987;32.638;-115.438;2023-04-10T00:06:28;4.88;;;1.52;;
61104;SDS011;46987;32.638;-115.438;2023-04-10T00:08:54;4.75;;;1.20;;
61104;SDS011;46987;32.638;-115.438;2023-04-10T00:11:21;3.35;;;1.40;;
61104;SDS011;46987;32.638;-115.438;2023-04-10T00:13:50;5.43;;;1.67;;
61104;SDS011;46987;32.638;-115.438;2023-04-10T00:16:17;3.25;;;1.23;;
61104;SDS011;46987;32.638;-115.438;2023-04-10T00:18:43;6.57;;;2.00;;
61104;SDS011;46987;32.638;-115.438;2023-04-10T00:21:10;5.32;;;1.63;;
61104;SDS011;46987;32.638;-115.438;2023-04-10T00:23:37;6.25;;;1.50;;
61104;SDS011;46987;32.638;-115.438;2023-04-10T00:26:04;6.18;;;1.85;;
61104;SDS011;46987;32.638;-115.438;2023-04-10T00:28:31;5.40;;;1.33;;
61104;SDS011;46987;32.638;-115.438;2023-04-10T00:30:59;7.88;;;1.50;;
61104;SDS011;46987;32.638;-115.438;2023-04-10T00:33:26;5.40;;;1.20;;
61104;SDS011;46987;32.638;-115.438;2023-04-10T00:35:53;7.43;;;2.17;;
61104;SDS011;46987;32.638;-115.438;2023-04-10T00:38:19;11.30;;;1.73;;
61104;SDS011;46987;32.638;-115.438;2023-04-10T00:40:47;6.07;;;1.30;;
61104;SDS011;46987;32.638;-115.438;2023-04-10T00:43:14;11.23;;;2.10;;
61104;SDS011;46987;32.638;-115.438;2023-04-10T00:45:45;4.80;;;1.40;;
61104;SDS011;46987;32.638;-115.438;2023-04-10T00:48:14;4.47;;;2.35;;
61104;SDS011;46987;32.638;-115.438;2023-04-10T00:50:40;7.38;;;1.58;;
61104;SDS011;46987;32.638;-115.438;2023-04-10T00:53:07;5.05;;;1.48;;
61104;SDS011;46987;32.638;-115.438;2023-04-10T00:55:34;5.03;;;1.10;;
61104;SDS011;46987;32.638;-115.438;2023-04-10T00:58:00;3.78;;;0.95;;
61104;SDS011;46987;32.638;-115.438;2023-04-10T01:00:28;5.53;;;1.25;;
61104;SDS011;46987;32.638;-115.438;2023-04-10T01:02:54;5.97;;;1.48;;
61104;SDS011;46987;32.638;-115.438;2023-04-10T01:05:40;6.35;;;2.00;;
61104;SDS011;46987;32.638;-115.438;2023-04-10T01:08:11;6.95;;;1.50;;
61104;SDS011;46987;32.638;-115.438;2023-04-10T01:10:41;7.07;;;1.50;;
61104;SDS011;46987;32.638;-115.438;2023-04-10T01:13:13;5.05;;;1.92;;
61104;SDS011;46987;32.638;-115.438;2023-04-10T01:15:43;4.28;;;1.35;;
61104;SDS011;46987;32.638;-115.438;2023-04-10T01:18:13;7.85;;;1.60;;
61104;SDS011;46987;32.638;-115.438;2023-04-10T01:20:43;5.97;;;1.42;;
61104;SDS011;46987;32.638;-115.438;2023-04-10T01:25:55;5.97;;;1.60;;
61104;SDS011;46987;32.638;-115.438;2023-04-10T01:31:07;3.97;;;1.30;;
61104;SDS011;46987;32.638;-115.438;2023-04-10T01:33:39;3.17;;;1.13;;
61104;SDS011;46987;32.638;-115.438;2023-04-10T01:36:07;12.48;;;2.17;;
61104;SDS011;46987;32.638;-115.438;2023-04-10T01:38:35;6.88;;;2.28;;
61104;SDS011;46987;32.638;-115.438;2023-04-10T01:41:03;7.82;;;1.83;;
61104;SDS011;46987;32.638;-115.438;2023-04-10T01:43:30;7.00;;;1.67;;
61104;SDS011;46987;32.638;-115.438;2023-04-10T01:45:58;7.18;;;2.15;;
61104;SDS011;46987;32.638;-115.438;2023-04-10T01:48:28;7.75;;;1.77;;
61104;SDS011;46987;32.638;-115.438;2023-04-10T01:50:56;6.20;;;1.50;;
61104;SDS011;46987;32.638;-115.438;2023-04-10T01:53:22;8.45;;;1.90;;
61104;SDS011;46987;32.638;-115.438;2023-04-10T01:55:50;6.35;;;1.75;;
61104;SDS011;46987;32.638;-115.438;2023-04-10T01:58:18;4.63;;;1.20;;
61104;SDS011;46987;32.638;-115.438;2023-04-10T02:00:45;7.53;;;1.90;;
61104;SDS011;46987;32.638;-115.438;2023-04-10T02:03:13;7.40;;;2.08;;
61104;SDS011;46987;32.638;-115.438;2023-04-10T02:05:44;9.02;;;2.13;;
61104;SDS011;46987;32.638;-115.438;2023-04-10T02:08:12;7.18;;;1.80;;
61104;SDS011;46987;32.638;-115.438;2023-04-10T02:10:42;8.73;;;1.80;;
61104;SDS011;46987;32.638;-115.438;2023-04-10T02:13:10;6.03;;;1.90;;
61104;SDS011;46987;32.638;-115.438;2023-04-10T02:15:40;4.68;;;1.88;;
61104;SDS011;46987;32.638;-115.438;2023-04-10T02:18:08;6.72;;;1.63;;
61104;SDS011;46987;32.638;-115.438;2023-04-10T02:20:35;8.23;;;2.05;;
61104;SDS011;46987;32.638;-115.438;2023-04-10T02:23:06;7.68;;;1.80;;
61104;SDS011;46987;32.638;-115.438;2023-04-10T02:25:34;19.25;;;3.95;;
61104;SDS011;46987;32.638;-115.438;2023-04-10T02:28:02;17.98;;;3.55;;
61104;SDS011;46987;32.638;-115.438;2023-04-10T02:30:31;10.88;;;2.50;;
61104;SDS011;46987;32.638;-115.438;2023-04-10T02:33:01;10.80;;;2.30;;
61104;SDS011;46987;32.638;-115.438;2023-04-10T02:35:29;17.95;;;3.20;;
61104;SDS011;46987;32.638;-115.438;2023-04-10T02:37:56;13.00;;;2.95;;
61104;SDS011;46987;32.638;-115.438;2023-04-10T02:40:24;12.07;;;2.90;;
61104;SDS011;46987;32.638;-115.438;2023-04-10T02:43:14;13.00;;;2.67;;
61104;SDS011;46987;32.638;-115.438;2023-04-10T02:45:41;8.70;;;2.67;;
61104;SDS011;46987;32.638;-115.438;2023-04-10T02:48:12;12.77;;;3.15;;
61104;SDS011;46987;32.638;-115.438;2023-04-10T02:50:39;11.82;;;3.15;;
61104;SDS011;46987;32.638;-115.438;2023-04-10T02:53:12;12.77;;;3.88;;
61104;SDS011;46987;32.638;-115.438;2023-04-10T02:55:41;10.85;;;3.38;;
61104;SDS011;46987;32.638;-115.438;2023-04-10T02:58:07;10.35;;;3.05;;
61104;SDS011;46987;32.638;-115.438;2023-04-10T03:00:35;14.20;;;4.50;;
61104;SDS011;46987;32.638;-115.438;2023-04-10T03:03:17;16.25;;;4.10;;
61104;SDS011;46987;32.638;-115.438;2023-04-10T03:08:17;12.02;;;4.40;;
61104;SDS011;46987;32.638;-115.438;2023-04-10T03:10:49;13.68;;;5.07;;
61104;SDS011;46987;32.638;-115.438;2023-04-10T03:13:16;11.93;;;3.72;;
61104;SDS011;46987;32.638;-115.438;2023-04-10T03:15:43;19.92;;;4.65;;
61104;SDS011;46987;32.638;-115.438;2023-04-10T03:18:09;19.15;;;6.10;;
61104;SDS011;46987;32.638;-115.438;2023-04-10T03:20:39;12.98;;;4.85;;
61104;SDS011;46987;32.638;-115.438;2023-04-10T03:23:08;12.45;;;4.75;;
61104;SDS011;46987;32.638;-115.438;2023-04-10T03:25:34;12.10;;;4.25;;
61104;SDS011;46987;32.638;-115.438;2023-04-10T03:28:05;14.32;;;4.57;;
61104;SDS011;46987;32.638;-115.438;2023-04-10T03:30:32;13.15;;;3.95;;
61104;SDS011;46987;32.638;-115.438;2023-04-10T03:33:02;18.13;;;5.05;;
61104;SDS011;46987;32.638;-115.438;2023-04-10T03:35:29;14.30;;;4.85;;
61104;SDS011;46987;32.638;-115.438;2023-04-10T03:37:56;11.38;;;4.25;;
61104;SDS011;46987;32.638;-115.438;2023-04-10T03:40:29;15.18;;;3.95;;
61104;SDS011;46987;32.638;-115.438;2023-04-10T03:43:00;15.13;;;3.92;;
61104;SDS011;46987;32.638;-115.438;2023-04-10T03:45:32;17.83;;;3.90;;
61104;SDS011;46987;32.638;-115.438;2023-04-10T03:48:00;12.93;;;4.22;;
61104;SDS011;46987;32.638;-115.438;2023-04-10T03:50:37;16.60;;;4.70;;
61104;SDS011;46987;32.638;-115.438;2023-04-10T03:53:05;12.15;;;5.00;;
61104;SDS011;46987;32.638;-115.438;2023-04-10T03:55:31;17.77;;;5.15;;
61104;SDS011;46987;32.638;-115.438;2023-04-10T03:57:59;14.52;;;5.03;;
61104;SDS011;46987;32.638;-115.438;2023-04-10T04:00:27;17.13;;;5.75;;
61104;SDS011;46987;32.638;-115.438;2023-04-10T04:03:03;17.98;;;6.43;;
61104;SDS011;46987;32.638;-115.438;2023-04-10T04:05:56;16.55;;;6.65;;
61104;SDS011;46987;32.638;-115.438;2023-04-10T04:08:26;17.52;;;6.68;;
61104;SDS011;46987;32.638;-115.438;2023-04-10T04:11:19;20.33;;;7.22;;
61104;SDS011;46987;32.638;-115.438;2023-04-10T04:14:02;14.57;;;6.72;;
61104;SDS011;46987;32.638;-115.438;2023-04-10T04:16:47;25.45;;;7.10;;
61104;SDS011;46987;32.638;-115.438;2023-04-10T04:19:31;18.83;;;7.28;;
61104;SDS011;46987;32.638;-115.438;2023-04-10T04:22:20;22.50;;;7.30;;
61104;SDS011;46987;32.638;-115.438;2023-04-10T04:25:22;17.98;;;7.47;;
61104;SDS011;46987;32.638;-115.438;2023-04-10T04:28:21;15.68;;;7.13;;
61104;SDS011;46987;32.638;-115.438;2023-04-10T04:31:03;16.07;;;7.80;;
61104;SDS011;46987;32.638;-115.438;2023-04-10T04:33:59;21.13;;;7.85;;
61104;SDS011;46987;32.638;-115.438;2023-04-10T04:36:46;26.20;;;7.47;;
61104;SDS011;46987;32.638;-115.438;2023-04-10T04:39:33;19.35;;;8.00;;
61104;SDS011;46987;32.638;-115.438;2023-04-10T04:42:03;31.45;;;8.55;;
61104;SDS011;46987;32.638;-115.438;2023-04-10T04:45:05;19.35;;;7.22;;
61104;SDS011;46987;32.638;-115.438;2023-04-10T04:47:41;24.45;;;7.78;;
61104;SDS011;46987;32.638;-115.438;2023-04-10T04:50:27;15.63;;;7.50;;
61104;SDS011;46987;32.638;-115.438;2023-04-10T04:53:14;23.92;;;7.90;;
61104;SDS011;46987;32.638;-115.438;2023-04-10T04:55:51;22.00;;;7.47;;
61104;SDS011;46987;32.638;-115.438;2023-04-10T04:58:46;17.80;;;7.68;;
61104;SDS011;46987;32.638;-115.438;2023-04-10T05:01:45;16.80;;;7.70;;
61104;SDS011;46987;32.638;-115.438;2023-04-10T05:04:22;20.35;;;7.65;;
61104;SDS011;46987;32.638;-115.438;2023-04-10T05:06:54;21.08;;;7.65;;
61104;SDS011;46987;32.638;-115.438;2023-04-10T05:12:41;24.77;;;7.28;;
61104;SDS011;46987;32.638;-115.438;2023-04-10T05:15:37;17.15;;;5.88;;
61104;SDS011;46987;32.638;-115.438;2023-04-10T05:18:24;19.80;;;6.15;;
61104;SDS011;46987;32.638;-115.438;2023-04-10T05:21:29;22.58;;;5.25;;
61104;SDS011;46987;32.638;-115.438;2023-04-10T05:24:11;17.67;;;6.00;;
61104;SDS011;46987;32.638;-115.438;2023-04-10T05:27:00;17.20;;;5.72;;
61104;SDS011;46987;32.638;-115.438;2023-04-10T05:29:47;19.30;;;6.60;;
61104;SDS011;46987;32.638;-115.438;2023-04-10T05:32:32;17.77;;;7.25;;
61104;SDS011;46987;32.638;-115.438;2023-04-10T05:35:18;19.35;;;7.07;;
61104;SDS011;46987;32.638;-115.438;2023-04-10T05:37:58;19.33;;;7.25;;
61104;SDS011;46987;32.638;-115.438;2023-04-10T05:40:43;21.60;;;8.13;;
61104;SDS011;46987;32.638;-115.438;2023-04-10T05:43:36;28.67;;;9.45;;
61104;SDS011;46987;32.638;-115.438;2023-04-10T05:46:44;26.17;;;9.18;;
61104;SDS011;46987;32.638;-115.438;2023-04-10T05:49:32;20.95;;;9.23;;
61104;SDS011;46987;32.638;-115.438;2023-04-10T05:52:13;20.23;;;8.20;;
61104;SDS011;46987;32.638;-115.438;2023-04-10T05:55:11;26.52;;;10.40;;
61104;SDS011;46987;32.638;-115.438;2023-04-10T05:57:38;34.67;;;9.75;;
61104;SDS011;46987;32.638;-115.438;2023-04-10T06:00:23;25.75;;;11.48;;
61104;SDS011;46987;32.638;-115.438;2023-04-10T06:03:11;33.75;;;11.93;;
61104;SDS011;46987;32.638;-115.438;2023-04-10T06:05:48;30.63;;;12.43;;
61104;SDS011;46987;32.638;-115.438;2023-04-10T06:08:18;29.15;;;12.40;;
61104;SDS011;46987;32.638;-115.438;2023-04-10T06:10:45;31.98;;;14.13;;
61104;SDS011;46987;32.638;-115.438;2023-04-10T06:13:14;32.83;;;15.00;;
61104;SDS011;46987;32.638;-115.438;2023-04-10T06:15:41;37.25;;;14.55;;
61104;SDS011;46987;32.638;-115.438;2023-04-10T06:18:10;47.67;;;16.15;;
61104;SDS011;46987;32.638;-115.438;2023-04-10T06:20:37;38.50;;;15.98;;
61104;SDS011;46987;32.638;-115.438;2023-04-10T06:23:04;34.95;;;14.88;;
61104;SDS011;46987;32.638;-115.438;2023-04-10T06:25:31;28.23;;;13.65;;
61104;SDS011;46987;32.638;-115.438;2023-04-10T06:27:59;32.08;;;13.40;;
61104;SDS011;46987;32.638;-115.438;2023-04-10T06:30:25;30.17;;;12.30;;
61104;SDS011;46987;32.638;-115.438;2023-04-10T06:32:52;26.75;;;11.70;;
61104;SDS011;46987;32.638;-115.438;2023-04-10T06:35:21;33.47;;;12.20;;
61104;SDS011;46987;32.638;-115.438;2023-04-10T06:37:49;29.17;;;11.77;;
61104;SDS011;46987;32.638;-115.438;2023-04-10T06:40:15;36.08;;;12.60;;
61104;SDS011;46987;32.638;-115.438;2023-04-10T06:42:42;34.13;;;11.90;;
61104;SDS011;46987;32.638;-115.438;2023-04-10T06:45:16;32.38;;;10.88;;
61104;SDS011;46987;32.638;-115.438;2023-04-10T06:47:42;34.50;;;11.52;;
61104;SDS011;46987;32.638;-115.438;2023-04-10T06:50:09;31.50;;;11.68;;
61104;SDS011;46987;32.638;-115.438;2023-04-10T06:52:37;22.67;;;11.32;;
61104;SDS011;46987;32.638;-115.438;2023-04-10T06:55:04;28.00;;;11.90;;
61104;SDS011;46987;32.638;-115.438;2023-04-10T06:57:31;32.47;;;11.43;;
61104;SDS011;46987;32.638;-115.438;2023-04-10T06:59:58;30.75;;;12.10;;
61104;SDS011;46987;32.638;-115.438;2023-04-10T07:02:24;35.17;;;11.65;;
61104;SDS011;46987;32.638;-115.438;2023-04-10T07:04:51;29.77;;;13.40;;
61104;SDS011;46987;32.638;-115.438;2023-04-10T07:07:18;30.98;;;12.38;;
61104;SDS011;46987;32.638;-115.438;2023-04-10T07:09:47;29.27;;;12.30;;
61104;SDS011;46987;32.638;-115.438;2023-04-10T07:12:13;40.40;;;14.00;;
61104;SDS011;46987;32.638;-115.438;2023-04-10T07:14:43;33.30;;;12.77;;
61104;SDS011;46987;32.638;-115.438;2023-04-10T07:17:09;27.98;;;12.98;;
61104;SDS011;46987;32.638;-115.438;2023-04-10T07:19:36;32.20;;;13.63;;
61104;SDS011;46987;32.638;-115.438;2023-04-10T07:22:03;39.50;;;13.05;;
61104;SDS011;46987;32.638;-115.438;2023-04-10T07:24:30;36.53;;;14.90;;
61104;SDS011;46987;32.638;-115.438;2023-04-10T07:26:58;35.00;;;14.13;;
61104;SDS011;46987;32.638;-115.438;2023-04-10T07:29:26;36.75;;;14.68;;
61104;SDS011;46987;32.638;-115.438;2023-04-10T07:31:53;34.08;;;14.70;;
61104;SDS011;46987;32.638;-115.438;2023-04-10T07:34:19;42.10;;;15.68;;
61104;SDS011;46987;32.638;-115.438;2023-04-10T07:36:46;37.65;;;15.43;;
61104;SDS011;46987;32.638;-115.438;2023-04-10T07:39:13;36.50;;;15.52;;
61104;SDS011;46987;32.638;-115.438;2023-04-10T07:41:39;47.72;;;15.93;;
61104;SDS011;46987;32.638;-115.438;2023-04-10T07:44:08;38.00;;;15.88;;
61104;SDS011;46987;32.638;-115.438;2023-04-10T07:46:35;40.67;;;15.98;;
61104;SDS011;46987;32.638;-115.438;2023-04-10T07:49:02;47.10;;;16.02;;
61104;SDS011;46987;32.638;-115.438;2023-04-10T07:51:29;38.80;;;15.57;;
61104;SDS011;46987;32.638;-115.438;2023-04-10T07:53:55;49.85;;;17.00;;
61104;SDS011;46987;32.638;-115.438;2023-04-10T07:56:22;38.92;;;15.73;;
61104;SDS011;46987;32.638;-115.438;2023-04-10T07:58:49;40.70;;;16.30;;
61104;SDS011;46987;32.638;-115.438;2023-04-10T08:01:18;40.03;;;16.90;;
61104;SDS011;46987;32.638;-115.438;2023-04-10T08:03:45;41.50;;;16.08;;
61104;SDS011;46987;32.638;-115.438;2023-04-10T08:06:12;46.00;;;16.67;;
61104;SDS011;46987;32.638;-115.438;2023-04-10T08:08:39;44.97;;;16.77;;
61104;SDS011;46987;32.638;-115.438;2023-04-10T08:11:06;43.88;;;16.67;;
61104;SDS011;46987;32.638;-115.438;2023-04-10T08:13:33;40.95;;;17.30;;
61104;SDS011;46987;32.638;-115.438;2023-04-10T08:16:00;34.38;;;15.95;;
61104;SDS011;46987;32.638;-115.438;2023-04-10T08:18:29;35.17;;;14.88;;
61104;SDS011;46987;32.638;-115.438;2023-04-10T08:20:55;48.25;;;15.07;;
61104;SDS011;46987;32.638;-115.438;2023-04-10T08:23:22;38.67;;;16.15;;
61104;SDS011;46987;32.638;-115.438;2023-04-10T08:25:49;36.75;;;16.90;;
61104;SDS011;46987;32.638;-115.438;2023-04-10T08:28:15;57.13;;;16.70;;
61104;SDS011;46987;32.638;-115.438;2023-04-10T08:30:42;39.42;;;16.63;;
61104;SDS011;46987;32.638;-115.438;2023-04-10T08:33:09;40.13;;;16.52;;
61104;SDS011;46987;32.638;-115.438;2023-04-10T08:35:37;38.63;;;14.57;;
61104;SDS011;46987;32.638;-115.438;2023-04-10T08:38:04;45.95;;;16.10;;
61104;SDS011;46987;32.638;-115.438;2023-04-10T08:40:30;44.53;;;16.88;;
61104;SDS011;46987;32.638;-115.438;2023-04-10T08:42:57;38.17;;;15.27;;
61104;SDS011;46987;32.638;-115.438;2023-04-10T08:45:24;42.67;;;16.27;;
61104;SDS011;46987;32.638;-115.438;2023-04-10T08:47:50;40.17;;;15.35;;
61104;SDS011;46987;32.638;-115.438;2023-04-10T08:50:18;41.50;;;16.27;;
61104;SDS011;46987;32.638;-115.438;2023-04-10T08:52:47;45.95;;;15.63;;
61104;SDS011;46987;32.638;-115.438;2023-04-10T08:55:16;37.58;;;16.45;;
61104;SDS011;46987;32.638;-115.438;2023-04-10T08:57:43;38.45;;;16.15;;
61104;SDS011;46987;32.638;-115.438;2023-04-10T09:00:11;38.17;;;15.30;;
61104;SDS011;46987;32.638;-115.438;2023-04-10T09:02:38;44.22;;;17.05;;
61104;SDS011;46987;32.638;-115.438;2023-04-10T09:05:08;34.60;;;16.00;;
61104;SDS011;46987;32.638;-115.438;2023-04-10T09:07:35;49.67;;;16.77;;
61104;SDS011;46987;32.638;-115.438;2023-04-10T09:10:05;49.63;;;17.08;;
61104;SDS011;46987;32.638;-115.438;2023-04-10T09:12:41;39.92;;;16.27;;
61104;SDS011;46987;32.638;-115.438;2023-04-10T09:15:08;46.00;;;16.08;;
61104;SDS011;46987;32.638;-115.438;2023-04-10T09:17:35;43.28;;;15.98;;
61104;SDS011;46987;32.638;-115.438;2023-04-10T09:20:01;43.22;;;14.70;;
61104;SDS011;46987;32.638;-115.438;2023-04-10T09:22:29;32.42;;;12.18;;
61104;SDS011;46987;32.638;-115.438;2023-04-10T09:24:57;24.67;;;10.43;;
61104;SDS011;46987;32.638;-115.438;2023-04-10T09:27:29;23.75;;;7.32;;
61104;SDS011;46987;32.638;-115.438;2023-04-10T09:29:56;24.60;;;8.13;;
61104;SDS011;46987;32.638;-115.438;2023-04-10T09:35:07;10.90;;;3.75;;
61104;SDS011;46987;32.638;-115.438;2023-04-10T09:37:35;10.43;;;3.42;;
61104;SDS011;46987;32.638;-115.438;2023-04-10T09:40:01;11.18;;;3.20;;
61104;SDS011;46987;32.638;-115.438;2023-04-10T09:42:34;11.77;;;3.15;;
61104;SDS011;46987;32.638;-115.438;2023-04-10T09:45:02;9.10;;;3.08;;
61104;SDS011;46987;32.638;-115.438;2023-04-10T09:47:29;10.35;;;2.60;;
61104;SDS011;46987;32.638;-115.438;2023-04-10T09:49:56;11.93;;;3.03;;
61104;SDS011;46987;32.638;-115.438;2023-04-10T09:52:25;9.77;;;2.47;;
61104;SDS011;46987;32.638;-115.438;2023-04-10T09:54:52;10.52;;;2.33;;
61104;SDS011;46987;32.638;-115.438;2023-04-10T09:57:20;7.28;;;2.75;;
61104;SDS011;46987;32.638;-115.438;2023-04-10T09:59:50;8.70;;;2.10;;
61104;SDS011;46987;32.638;-115.438;2023-04-10T10:02:17;8.88;;;2.40;;
61104;SDS011;46987;32.638;-115.438;2023-04-10T10:04:45;6.57;;;2.50;;
61104;SDS011;46987;32.638;-115.438;2023-04-10T10:07:12;10.65;;;2.60;;
61104;SDS011;46987;32.638;-115.438;2023-04-10T10:09:39;9.63;;;2.45;;
61104;SDS011;46987;32.638;-115.438;2023-04-10T10:12:07;7.78;;;2.38;;
61104;SDS011;46987;32.638;-115.438;2023-04-10T10:14:34;9.60;;;2.38;;
61104;SDS011;46987;32.638;-115.438;2023-04-10T10:17:06;6.70;;;2.25;;
61104;SDS011;46987;32.638;-115.438;2023-04-10T10:19:37;8.82;;;2.17;;
61104;SDS011;46987;32.638;-115.438;2023-04-10T10:22:05;6.43;;;2.00;;
61104;SDS011;46987;32.638;-115.438;2023-04-10T10:24:34;7.25;;;2.15;;
61104;SDS011;46987;32.638;-115.438;2023-04-10T10:27:02;10.45;;;2.10;;
61104;SDS011;46987;32.638;-115.438;2023-04-10T10:29:30;8.57;;;2.13;;
61104;SDS011;46987;32.638;-115.438;2023-04-10T10:31:57;13.70;;;2.50;;
61104;SDS011;46987;32.638;-115.438;2023-04-10T10:34:27;5.55;;;2.22;;
61104;SDS011;46987;32.638;-115.438;2023-04-10T10:36:54;12.07;;;2.80;;
61104;SDS011;46987;32.638;-115.438;2023-04-10T10:39:23;10.43;;;2.60;;
61104;SDS011;46987;32.638;-115.438;2023-04-10T10:41:55;6.07;;;1.80;;
61104;SDS011;46987;32.638;-115.438;2023-04-10T10:44:27;10.48;;;2.22;;
61104;SDS011;46987;32.638;-115.438;2023-04-10T10:46:58;9.82;;;2.58;;
61104;SDS011;46987;32.638;-115.438;2023-04-10T10:51:56;8.60;;;1.90;;
61104;SDS011;46987;32.638;-115.438;2023-04-10T10:54:29;7.53;;;2.08;;
61104;SDS011;46987;32.638;-115.438;2023-04-10T10:56:56;7.63;;;2.30;;
61104;SDS011;46987;32.638;-115.438;2023-04-10T11:02:12;7.25;;;2.38;;
61104;SDS011;46987;32.638;-115.438;2023-04-10T11:04:41;9.25;;;2.28;;
61104;SDS011;46987;32.638;-115.438;2023-04-10T11:07:10;9.45;;;2.50;;
61104;SDS011;46987;32.638;-115.438;2023-04-10T11:09:45;10.10;;;2.75;;
61104;SDS011;46987;32.638;-115.438;2023-04-10T11:12:14;11.00;;;1.75;;
61104;SDS011;46987;32.638;-115.438;2023-04-10T11:14:41;11.68;;;2.63;;
61104;SDS011;46987;32.638;-115.438;2023-04-10T11:17:09;9.48;;;2.15;;
61104;SDS011;46987;32.638;-115.438;2023-04-10T11:22:22;9.50;;;2.03;;
61104;SDS011;46987;32.638;-115.438;2023-04-10T11:24:52;6.93;;;1.63;;
61104;SDS011;46987;32.638;-115.438;2023-04-10T11:32:46;8.85;;;2.33;;
61104;SDS011;46987;32.638;-115.438;2023-04-10T11:35:17;10.38;;;1.70;;
61104;SDS011;46987;32.638;-115.438;2023-04-10T11:37:46;13.80;;;2.30;;
61104;SDS011;46987;32.638;-115.438;2023-04-10T11:40:12;7.57;;;1.55;;
61104;SDS011;46987;32.638;-115.438;2023-04-10T11:42:39;5.32;;;1.70;;
61104;SDS011;46987;32.638;-115.438;2023-04-10T11:45:22;6.88;;;1.58;;
61104;SDS011;46987;32.638;-115.438;2023-04-10T11:47:50;7.28;;;1.73;;
61104;SDS011;46987;32.638;-115.438;2023-04-10T11:50:17;9.38;;;1.83;;
61104;SDS011;46987;32.638;-115.438;2023-04-10T11:52:45;8.70;;;2.65;;
61104;SDS011;46987;32.638;-115.438;2023-04-10T11:55:12;8.10;;;1.80;;
61104;SDS011;46987;32.638;-115.438;2023-04-10T11:57:38;9.90;;;2.63;;
61104;SDS011;46987;32.638;-115.438;2023-04-10T12:00:05;9.38;;;1.85;;
61104;SDS011;46987;32.638;-115.438;2023-04-10T12:02:33;10.88;;;2.20;;
61104;SDS011;46987;32.638;-115.438;2023-04-10T12:04:59;7.72;;;1.80;;
61104;SDS011;46987;32.638;-115.438;2023-04-10T12:07:26;8.98;;;1.95;;
61104;SDS011;46987;32.638;-115.438;2023-04-10T12:09:57;8.73;;;2.13;;
61104;SDS011;46987;32.638;-115.438;2023-04-10T12:12:33;5.30;;;1.90;;
61104;SDS011;46987;32.638;-115.438;2023-04-10T12:15:01;8.52;;;2.72;;
61104;SDS011;46987;32.638;-115.438;2023-04-10T12:17:27;5.53;;;1.85;;
61104;SDS011;46987;32.638;-115.438;2023-04-10T12:19:54;8.52;;;1.67;;
61104;SDS011;46987;32.638;-115.438;2023-04-10T12:22:21;5.55;;;1.70;;
61104;SDS011;46987;32.638;-115.438;2023-04-10T12:24:48;6.00;;;1.63;;
61104;SDS011;46987;32.638;-115.438;2023-04-10T12:27:17;13.10;;;3.90;;
61104;SDS011;46987;32.638;-115.438;2023-04-10T12:29:44;17.77;;;3.78;;
61104;SDS011;46987;32.638;-115.438;2023-04-10T12:32:11;15.77;;;4.25;;
61104;SDS011;46987;32.638;-115.438;2023-04-10T12:34:38;12.45;;;3.28;;
61104;SDS011;46987;32.638;-115.438;2023-04-10T12:37:05;11.60;;;3.30;;
61104;SDS011;46987;32.638;-115.438;2023-04-10T12:39:32;12.10;;;3.35;;
61104;SDS011;46987;32.638;-115.438;2023-04-10T12:42:11;12.05;;;2.83;;
61104;SDS011;46987;32.638;-115.438;2023-04-10T12:44:50;15.80;;;2.75;;
61104;SDS011;46987;32.638;-115.438;2023-04-10T12:47:17;13.85;;;3.40;;
61104;SDS011;46987;32.638;-115.438;2023-04-10T12:52:25;14.27;;;4.65;;
61104;SDS011;46987;32.638;-115.438;2023-04-10T12:54:52;22.20;;;5.78;;
61104;SDS011;46987;32.638;-115.438;2023-04-10T12:57:24;22.75;;;5.63;;
61104;SDS011;46987;32.638;-115.438;2023-04-10T12:59:53;16.95;;;4.25;;
61104;SDS011;46987;32.638;-115.438;2023-04-10T13:02:20;11.02;;;3.17;;
61104;SDS011;46987;32.638;-115.438;2023-04-10T13:04:48;11.85;;;3.42;;
61104;SDS011;46987;32.638;-115.438;2023-04-10T13:07:15;14.07;;;3.30;;
61104;SDS011;46987;32.638;-115.438;2023-04-10T13:09:42;12.52;;;3.55;;
61104;SDS011;46987;32.638;-115.438;2023-04-10T13:12:08;16.17;;;3.58;;
61104;SDS011;46987;32.638;-115.438;2023-04-10T13:14:35;10.05;;;2.80;;
61104;SDS011;46987;32.638;-115.438;2023-04-10T13:17:04;9.52;;;2.50;;
61104;SDS011;46987;32.638;-115.438;2023-04-10T13:19:31;13.32;;;2.88;;
61104;SDS011;46987;32.638;-115.438;2023-04-10T13:21:57;14.73;;;2.97;;
61104;SDS011;46987;32.638;-115.438;2023-04-10T13:24:26;12.18;;;2.78;;
61104;SDS011;46987;32.638;-115.438;2023-04-10T13:26:52;13.27;;;2.92;;
61104;SDS011;46987;32.638;-115.438;2023-04-10T13:29:19;18.15;;;3.38;;
61104;SDS011;46987;32.638;-115.438;2023-04-10T13:31:46;14.10;;;4.00;;
61104;SDS011;46987;32.638;-115.438;2023-04-10T13:34:14;16.25;;;3.78;;
61104;SDS011;46987;32.638;-115.438;2023-04-10T13:36:41;14.20;;;6.22;;
61104;SDS011;46987;32.638;-115.438;2023-04-10T13:39:07;15.77;;;6.75;;
61104;SDS011;46987;32.638;-115.438;2023-04-10T13:41:34;20.75;;;6.43;;
61104;SDS011;46987;32.638;-115.438;2023-04-10T13:44:01;23.38;;;6.75;;
61104;SDS011;46987;32.638;-115.438;2023-04-10T13:46:27;14.57;;;6.63;;
61104;SDS011;46987;32.638;-115.438;2023-04-10T13:48:54;16.38;;;6.53;;
61104;SDS011;46987;32.638;-115.438;2023-04-10T13:51:22;17.08;;;7.05;;
61104;SDS011;46987;32.638;-115.438;2023-04-10T13:53:49;17.45;;;6.22;;
61104;SDS011;46987;32.638;-115.438;2023-04-10T13:56:16;20.10;;;6.75;;
61104;SDS011;46987;32.638;-115.438;2023-04-10T13:58:44;25.25;;;7.18;;
61104;SDS011;46987;32.638;-115.438;2023-04-10T14:01:11;16.52;;;5.82;;
61104;SDS011;46987;32.638;-115.438;2023-04-10T14:03:37;20.98;;;5.70;;
61104;SDS011;46987;32.638;-115.438;2023-04-10T14:06:04;15.93;;;4.65;;
61104;SDS011;46987;32.638;-115.438;2023-04-10T14:08:32;15.55;;;4.20;;
61104;SDS011;46987;32.638;-115.438;2023-04-10T14:10:59;19.02;;;4.63;;
61104;SDS011;46987;32.638;-115.438;2023-04-10T14:13:26;12.07;;;4.13;;
61104;SDS011;46987;32.638;-115.438;2023-04-10T14:15:52;17.08;;;4.70;;
61104;SDS011;46987;32.638;-115.438;2023-04-10T14:18:19;17.13;;;4.10;;
61104;SDS011;46987;32.638;-115.438;2023-04-10T14:20:46;14.75;;;3.97;;
61104;SDS011;46987;32.638;-115.438;2023-04-10T14:23:13;18.23;;;5.60;;
61104;SDS011;46987;32.638;-115.438;2023-04-10T14:25:44;20.33;;;4.43;;
61104;SDS011;46987;32.638;-115.438;2023-04-10T14:28:11;15.20;;;3.85;;
61104;SDS011;46987;32.638;-115.438;2023-04-10T14:30:48;21.00;;;4.25;;
61104;SDS011;46987;32.638;-115.438;2023-04-10T14:33:14;20.33;;;5.15;;
61104;SDS011;46987;32.638;-115.438;2023-04-10T14:35:41;14.75;;;5.00;;
61104;SDS011;46987;32.638;-115.438;2023-04-10T14:38:08;21.95;;;5.60;;
61104;SDS011;46987;32.638;-115.438;2023-04-10T14:40:35;15.63;;;5.72;;
61104;SDS011;46987;32.638;-115.438;2023-04-10T14:43:03;15.52;;;4.50;;
61104;SDS011;46987;32.638;-115.438;2023-04-10T14:45:30;17.30;;;4.70;;